My Meet Scores
Penelope McCollom, Gymnastics X-Calibur - MyMeetScores.com
Top100 | Top Teams | Upcoming Meets | Completed Meets | Latest | Add Scores | Help| Support | Bookmark and Share

Penelope McCollom, Gymnastics X-Calibur
Personal Bests
LevelVault BarsBeamFloorAA
39.4259.300 8.9508.72535.600
XG9.2509.250 9.2259.32536.825
XS9.6009.900 9.5009.47538.375
Scores on America's Top 100as of 11.27.2020
Year Level Vault Bars Beam Floor AA
2019 XS9.900

Click here to view our exclusive Top 100 Collection
Meet Scores
Date Meet Team Session Level Division Vault Bars Beam Floor AA
2020-02-21 Kinetic Classic Gymnastics X-Calibur 10 XG Younger 9.100 55T 7.500 75 8.325 60T 9.325 33T 34.250 73
2020-01-31 LEgacy Elite Classic Gymnastics X-Calibur 5 XG Ch 8.600 9 8.175 10 8.750 8 9.100 6 34.625 10
2020-01-24 King Arthur Invitational Gymnastics X-Calibur 11 XG JR A 9.250 2 9.100 12 9.225 5T 9.250 10T 36.825 5
2020-01-10 Leenda's Island Adventure Gymnastics X-Calibur GG9 XG 10 & Under 8.800 4T 9.100 10 8.900 5 9.150 8T 35.950 4T
2019-12-07 Home for the Holidays 2019 Gymnastics X-Calibur 5 XG Younger 8.975 5 8.950 6 8.900 3 9.000 9 35.825 5
2019-11-08 Illinois Judges Cup Gymnastics X-Calibur P6 XG All Ages 9.100 10T 8.750 25T 7.925 32 9.250 12 35.025 22
2019-05-03 2019 Region 5 Xcel Championships Gymnastics X-Calibur 10O XS CH D 9.275 10T 9.650 4 9.475 11T 9.250 24T 37.650 6
2019-04-13 2019 Illinois XB, XS State Championships Gymnastics X-Calibur 3 XS Ch D 9.600 2T 9.900 3 9.400 17T 9.475 5 38.375 3
2019-02-15 Women's Midwest Open Gymnastics X-Calibur 10 XG Junior A 8.350 17 9.250 2 8.525 14T 9.000 15T 35.125 13
2019-02-08 Midwest Twisters Harley Meet Womens Gymnastics X-Calibur S05 XG 9 & under 8.050 10 8.150 7T 8.275 7T 8.950 7 33.425 8
2019-01-25 King Arthur Invitational Gymnastics X-Calibur 19 XG CH 8.775 9 8.650 12 8.750 8 8.825 12T 35.000 13T
2019-01-04 Leenda's Island Adventure Gymnastics X-Calibur P06 XS 9 Year Old 9.175 6 9.650 4T 9.500 4 9.050 10 37.375 3
2018-11-30 Ultimate Wish Classic Gymnastics X-Calibur 7 XS JR 9.300 4T 9.525 7 9.300 13 8.650 18 36.775 9T
2018-03-01 Derby Classic 2018 Gymnastics X-Calibur 4A 3 Jr C 9.050 9 8.550 12 8.550 13 8.675 12 34.825 12
2018-02-23 Kinetic Classic Gymnastics X-Calibur 4 3 Middle 9.425 9 8.800 74T 8.950 54T 7.700 93 34.875 76T
2018-02-03 Midwest Games Gymnastics X-Calibur 5 3 JR B 9.000 7T 8.425 16 8.500 14 8.700 16 34.625 16
2018-01-26 King Arthur Invitational Gymnastics X-Calibur 5 3 JR B 9.225 14 7.550 22 8.500 17 8.075 19 33.350 20
2018-01-12 St Jude Benefit Meet Gymnastics X-Calibur 5A 3 JrC 9.150 7T 9.300 1T 8.750 7T 8.400 10 35.600 8
2017-12-01 Ultimate Wish Classic Gymnastics X-Calibur 4 3 JR2 8.700 15T 9.200 1 8.800 5T 8.725 9 35.425 7
2017-02-24 St. Louis Classic Gymnastics X-Calibur B-8 3 Jr A 8.150 15 7.900 14 8.125 9 8.350 13 32.525 14
2017-02-03 St. Valentines Classic Womens Gymnastics X-Calibur 3A 3 6-8 yrs. 8.450 13 8.425 9 8.100 8 8.100 10 33.075 10
2017-01-13 St Jude Benefit Meet Gymnastics X-Calibur 8A 3 Jr A 9.025 8 8.050 17 8.025 12 8.275 16 33.375 15
Get your scores on
a t-shirt, pin, or hoodie

www.lazysuits.com